Time,TemperatureF,DewpointF,PressureIn,WindDirection,WindDirectionDegrees,WindSpeedMPH,WindSpeedGustMPH,Humidity,HourlyPrecipIn,Conditions,Clouds,dailyrainin,SoftwareType,DateUTC
2013-07-06 00:33:00,82.0,-99.9,30.15,SSW,210,11.0,13.0,-999,-99.99,,,-99.99,,2013-07-06 04:33:00,
2013-07-06 00:43:00,82.0,-99.9,30.15,SSW,210,11.0,16.0,-999,-99.99,,,-99.99,,2013-07-06 04:43:00,
2013-07-06 00:53:00,81.0,-99.9,30.15,SSW,210,11.0,13.0,-999,-99.99,,,-99.99,,2013-07-06 04:53:00,
2013-07-06 01:02:00,81.0,-99.9,30.15,SSW,210,11.0,13.0,-999,-99.99,,,-99.99,,2013-07-06 05:02:00,
2013-07-06 01:12:00,82.0,-99.9,30.15,SW,220,13.0,16.0,-999,-99.99,,,-99.99,,2013-07-06 05:12:00,
2013-07-06 01:22:00,81.0,-99.9,30.15,SSW,210,11.0,13.0,-999,-99.99,,,-99.99,,2013-07-06 05:22:00,
2013-07-06 01:34:00,81.0,-99.9,30.15,SSW,210,11.0,13.0,-999,-99.99,,,-99.99,,2013-07-06 05:34:00,
2013-07-06 01:43:00,81.0,-99.9,30.15,SSW,210,11.0,13.0,-999,-99.99,,,-99.99,,2013-07-06 05:43:00,
2013-07-06 01:50:00,81.0,-99.9,30.14,SW,220,11.0,13.0,-999,-99.99,,,-99.99,,2013-07-06 05:50:00,
2013-07-06 01:53:00,81.0,-99.9,30.15,SSW,210,11.0,13.0,-999,-99.99,,,-99.99,,2013-07-06 05:53:00,
2013-07-06 02:02:00,81.0,-99.9,30.15,SW,220,9.0,13.0,-999,-99.99,,,-99.99,,2013-07-06 06:02:00,
2013-07-06 02:12:00,81.0,-99.9,30.15,SW,220,9.0,13.0,-999,-99.99,,,-99.99,,2013-07-06 06:12:00,
2013-07-06 02:22:00,81.0,-99.9,30.14,SW,220,11.0,13.0,-999,-99.99,,,-99.99,,2013-07-06 06:22:00,
2013-07-06 02:34:00,81.0,-99.9,30.14,SW,220,11.0,13.0,-999,-99.99,,,-99.99,,2013-07-06 06:34:00,
2013-07-06 02:43:00,81.0,-99.9,30.14,SW,220,11.0,13.0,-999,-99.99,,,-99.99,,2013-07-06 06:43:00,
2013-07-06 03:12:00,81.0,-99.9,30.14,SW,220,11.0,13.0,-999,-99.99,,,-99.99,,2013-07-06 07:12:00,
2013-07-06 03:33:00,80.0,-99.9,30.14,SW,220,9.0,13.0,-999,-99.99,,,-99.99,,2013-07-06 07:33:00,
2013-07-06 03:44:00,80.0,-99.9,30.14,SW,220,11.0,13.0,-999,-99.99,,,-99.99,,2013-07-06 07:44:00,
2013-07-06 03:52:00,80.0,-99.9,30.14,SW,220,11.0,13.0,-999,-99.99,,,-99.99,,2013-07-06 07:52:00,
2013-07-06 04:02:00,80.0,-99.9,30.14,SW,220,11.0,13.0,-999,-99.99,,,-99.99,,2013-07-06 08:02:00,
2013-07-06 04:12:00,80.0,-99.9,30.14,SW,220,11.0,13.0,-999,-99.99,,,-99.99,,2013-07-06 08:12:00,
2013-07-06 04:22:00,80.0,-99.9,30.14,SW,220,11.0,16.0,-999,-99.99,,,-99.99,,2013-07-06 08:22:00,
2013-07-06 04:34:00,80.0,-99.9,30.14,SW,220,11.0,16.0,-999,-99.99,,,-99.99,,2013-07-06 08:34:00,
2013-07-06 04:54:00,80.0,-99.9,30.14,SW,230,11.0,13.0,-999,-99.99,,,-99.99,,2013-07-06 08:54:00,
2013-07-06 05:02:00,80.0,-99.9,30.14,SW,230,11.0,13.0,-999,-99.99,,,-99.99,,2013-07-06 09:02:00,
2013-07-06 05:11:00,80.0,-99.9,30.14,SW,230,11.0,13.0,-999,-99.99,,,-99.99,,2013-07-06 09:11:00,
2013-07-06 05:22:00,80.0,-99.9,30.14,SW,220,11.0,13.0,-999,-99.99,,,-99.99,,2013-07-06 09:22:00,
2013-07-06 05:34:00,80.0,-99.9,30.14,SW,220,11.0,13.0,-999,-99.99,,,-99.99,,2013-07-06 09:34:00,
2013-07-06 05:43:00,79.0,-99.9,30.14,SW,230,11.0,13.0,-999,-99.99,,,-99.99,,2013-07-06 09:43:00,
2013-07-06 05:53:00,79.0,-99.9,30.13,SW,230,11.0,16.0,-999,-99.99,,,-99.99,,2013-07-06 09:53:00,
2013-07-06 06:02:00,79.0,-99.9,30.13,SW,230,11.0,13.0,-999,-99.99,,,-99.99,,2013-07-06 10:02:00,
2013-07-06 06:12:00,79.0,-99.9,30.13,SW,230,11.0,13.0,-999,-99.99,,,-99.99,,2013-07-06 10:12:00,
2013-07-06 06:33:00,79.0,-99.9,30.14,WSW,240,11.0,13.0,-999,-99.99,,,-99.99,,2013-07-06 10:33:00,
2013-07-06 06:43:00,79.0,-99.9,30.14,WSW,240,11.0,13.0,-999,-99.99,,,-99.99,,2013-07-06 10:43:00,
2013-07-06 06:53:00,79.0,-99.9,30.14,WSW,240,11.0,13.0,-999,-99.99,,,-99.99,,2013-07-06 10:53:00,
2013-07-06 07:01:00,79.0,-99.9,30.15,SW,230,9.0,11.0,-999,-99.99,,,-99.99,,2013-07-06 11:01:00,
2013-07-06 07:11:00,79.0,-99.9,30.15,WSW,240,9.0,11.0,-999,-99.99,,,-99.99,,2013-07-06 11:11:00,
2013-07-06 07:22:00,80.0,-99.9,30.15,WSW,250,9.0,11.0,-999,-99.99,,,-99.99,,2013-07-06 11:22:00,
2013-07-06 07:33:00,80.0,-99.9,30.15,WSW,250,9.0,11.0,-999,-99.99,,,-99.99,,2013-07-06 11:33:00,
2013-07-06 07:43:00,80.0,-99.9,30.16,WSW,250,7.0,9.0,-999,-99.99,,,-99.99,,2013-07-06 11:43:00,
2013-07-06 07:53:00,80.0,-99.9,30.16,WSW,250,7.0,9.0,-999,-99.99,,,-99.99,,2013-07-06 11:53:00,
2013-07-06 08:01:00,80.0,-99.9,30.16,WSW,250,7.0,9.0,-999,-99.99,,,-99.99,,2013-07-06 12:01:00,
2013-07-06 08:12:00,80.0,-99.9,30.16,WSW,250,7.0,9.0,-999,-99.99,,,-99.99,,2013-07-06 12:12:00,
2013-07-06 08:22:00,81.0,-99.9,30.16,West,260,9.0,11.0,-999,-99.99,,,-99.99,,2013-07-06 12:22:00,
2013-07-06 08:34:00,81.0,-99.9,30.16,West,260,9.0,11.0,-999,-99.99,,,-99.99,,2013-07-06 12:34:00,
2013-07-06 08:43:00,81.0,-99.9,30.16,West,260,7.0,11.0,-999,-99.99,,,-99.99,,2013-07-06 12:43:00,
2013-07-06 08:52:00,81.0,-99.9,30.16,West,260,7.0,11.0,-999,-99.99,,,-99.99,,2013-07-06 12:52:00,
2013-07-06 09:01:00,81.0,-99.9,30.16,WSW,250,9.0,13.0,-999,-99.99,,,-99.99,,2013-07-06 13:01:00,
2013-07-06 09:12:00,81.0,-99.9,30.16,WSW,250,7.0,9.0,-999,-99.99,,,-99.99,,2013-07-06 13:12:00,
2013-07-06 09:22:00,82.0,-99.9,30.16,WSW,250,7.0,9.0,-999,-99.99,,,-99.99,,2013-07-06 13:22:00,
2013-07-06 09:33:00,82.0,-99.9,30.16,WSW,250,7.0,9.0,-999,-99.99,,,-99.99,,2013-07-06 13:33:00,
2013-07-06 09:52:00,82.0,-99.9,30.16,WSW,240,7.0,9.0,-999,-99.99,,,-99.99,,2013-07-06 13:52:00,
2013-07-06 10:02:00,82.0,-99.9,30.16,WSW,250,4.0,9.0,-999,-99.99,,,-99.99,,2013-07-06 14:02:00,
2013-07-06 10:12:00,83.0,-99.9,30.16,West,260,7.0,11.0,-999,-99.99,,,-99.99,,2013-07-06 14:12:00,
2013-07-06 10:22:00,83.0,-99.9,30.16,West,260,7.0,11.0,-999,-99.99,,,-99.99,,2013-07-06 14:22:00,
2013-07-06 10:30:00,84.0,-99.9,30.16,WSW,250,4.0,7.0,-999,-99.99,,,-99.99,,2013-07-06 14:30:00,
2013-07-06 10:34:00,83.0,-99.9,30.16,WSW,250,7.0,9.0,-999,-99.99,,,-99.99,,2013-07-06 14:34:00,
2013-07-06 10:43:00,83.0,-99.9,30.16,WSW,250,7.0,11.0,-999,-99.99,,,-99.99,,2013-07-06 14:43:00,
2013-07-06 10:53:00,84.0,-99.9,30.16,WSW,240,7.0,11.0,-999,-99.99,,,-99.99,,2013-07-06 14:53:00,
2013-07-06 11:02:00,84.0,-99.9,30.16,WSW,250,4.0,7.0,-999,-99.99,,,-99.99,,2013-07-06 15:02:00,
2013-07-06 11:12:00,84.0,-99.9,30.16,WSW,250,4.0,7.0,-999,-99.99,,,-99.99,,2013-07-06 15:12:00,
2013-07-06 11:22:00,84.0,-99.9,30.16,WSW,250,4.0,7.0,-999,-99.99,,,-99.99,,2013-07-06 15:22:00,
2013-07-06 13:37:00,84.0,-99.9,30.13,South,180,9.0,11.0,-999,-99.99,,,-99.99,,2013-07-06 17:37:00,
2013-07-06 14:02:00,84.0,-99.9,30.13,South,180,11.0,11.0,-999,-99.99,,,-99.99,,2013-07-06 18:02:00,
2013-07-06 14:10:00,84.0,-99.9,30.12,South,180,11.0,13.0,-999,-99.99,,,-99.99,,2013-07-06 18:10:00,
2013-07-06 14:17:00,84.0,-99.9,30.12,South,180,11.0,13.0,-999,-99.99,,,-99.99,,2013-07-06 18:17:00,
2013-07-06 14:39:00,84.0,-99.9,30.11,South,180,11.0,13.0,-999,-99.99,,,-99.99,,2013-07-06 18:39:00,
2013-07-06 14:52:00,84.0,-99.9,30.11,South,180,11.0,13.0,-999,-99.99,,,-99.99,,2013-07-06 18:52:00,
2013-07-06 15:35:00,85.0,-99.9,30.10,South,180,13.0,16.0,-999,-99.99,,,-99.99,,2013-07-06 19:35:00,
2013-07-06 16:01:00,85.0,-99.9,30.09,South,180,13.0,16.0,-999,-99.99,,,-99.99,,2013-07-06 20:01:00,
2013-07-06 16:11:00,85.0,-99.9,30.09,South,170,11.0,16.0,-999,-99.99,,,-99.99,,2013-07-06 20:11:00,
2013-07-06 16:20:00,85.0,-99.9,30.09,South,180,13.0,16.0,-999,-99.99,,,-99.99,,2013-07-06 20:20:00,
2013-07-06 16:37:00,85.0,-99.9,30.08,South,180,13.0,16.0,-999,-99.99,,,-99.99,,2013-07-06 20:37:00,
2013-07-06 16:54:00,85.0,-99.9,30.08,South,180,13.0,16.0,-999,-99.99,,,-99.99,,2013-07-06 20:54:00,
2013-07-06 17:13:00,85.0,-99.9,30.08,South,180,13.0,18.0,-999,-99.99,,,-99.99,,2013-07-06 21:13:00,
2013-07-06 17:38:00,85.0,-99.9,30.07,South,190,13.0,16.0,-999,-99.99,,,-99.99,,2013-07-06 21:38:00,
2013-07-06 18:37:00,86.0,-99.9,30.06,SSW,200,11.0,13.0,-999,-99.99,,,-99.99,,2013-07-06 22:37:00,
2013-07-06 18:51:00,86.0,-99.9,30.05,South,190,11.0,13.0,-999,-99.99,,,-99.99,,2013-07-06 22:51:00,
2013-07-06 19:10:00,87.0,-99.9,30.05,South,190,11.0,13.0,-999,-99.99,,,-99.99,,2013-07-06 23:10:00,
2013-07-06 19:16:00,88.0,-99.9,30.05,SSW,200,11.0,16.0,-999,-99.99,,,-99.99,,2013-07-06 23:16:00,
2013-07-06 19:28:00,89.0,-99.9,30.05,SSW,210,11.0,16.0,-999,-99.99,,,-99.99,,2013-07-06 23:28:00,
2013-07-06 19:30:00,89.0,-99.9,30.05,SW,220,7.0,11.0,-999,-99.99,,,-99.99,,2013-07-06 23:30:00,
2013-07-06 19:34:00,89.0,-99.9,30.05,SW,220,11.0,13.0,-999,-99.99,,,-99.99,,2013-07-06 23:34:00,
2013-07-06 20:29:00,89.0,-99.9,30.05,SW,220,7.0,11.0,-999,-99.99,,,-99.99,,2013-07-07 00:29:00,
2013-07-06 20:30:00,87.0,-99.9,30.06,SW,230,9.0,13.0,-999,-99.99,,,-99.99,,2013-07-07 00:30:00,
2013-07-06 21:02:00,88.0,-99.9,30.05,SW,220,11.0,13.0,-999,-99.99,,,-99.99,,2013-07-07 01:02:00,
2013-07-06 21:12:00,87.0,-99.9,30.05,SW,220,9.0,13.0,-999,-99.99,,,-99.99,,2013-07-07 01:12:00,
2013-07-06 21:18:00,87.0,-99.9,30.06,SW,230,9.0,13.0,-999,-99.99,,,-99.99,,2013-07-07 01:18:00,
2013-07-06 21:27:00,87.0,-99.9,30.06,SW,230,9.0,13.0,-999,-99.99,,,-99.99,,2013-07-07 01:27:00,
2013-07-06 21:51:00,86.0,-99.9,30.06,SW,230,9.0,11.0,-999,-99.99,,,-99.99,,2013-07-07 01:51:00,
2013-07-06 22:18:00,85.0,-99.9,30.07,SW,230,9.0,11.0,-999,-99.99,,,-99.99,,2013-07-07 02:18:00,
2013-07-06 22:57:00,85.0,-99.9,30.09,SW,230,9.0,11.0,-999,-99.99,,,-99.99,,2013-07-07 02:57:00,
2013-07-06 23:03:00,85.0,-99.9,30.09,SW,230,9.0,11.0,-999,-99.99,,,-99.99,,2013-07-07 03:03:00,
2013-07-06 23:24:00,84.0,-99.9,30.09,SW,230,9.0,13.0,-999,-99.99,,,-99.99,,2013-07-07 03:24:00,
2013-07-06 23:46:00,84.0,-99.9,30.09,SW,230,9.0,11.0,-999,-99.99,,,-99.99,,2013-07-07 03:46:00,
2013-07-06 23:59:00,83.0,-99.9,30.09,SW,230,9.0,11.0,-999,-99.99,,,-99.99,,2013-07-07 03:59:00,